sensor_id;sensor_type;location;lat;lon;timestamp;pressure;altitude;pressure_sealevel;temperature;humidity
44144;BME280;43510;51.920;4.492;2022-09-09T00:01:06;67873.13;;;18.21;100.00
44144;BME280;43510;51.920;4.492;2022-09-09T00:03:43;67874.81;;;18.22;100.00
44144;BME280;43510;51.920;4.492;2022-09-09T00:06:23;67873.13;;;18.21;100.00
44144;BME280;43510;51.920;4.492;2022-09-09T00:09:17;67881.38;;;18.26;100.00
44144;BME280;43510;51.920;4.492;2022-09-09T00:11:48;67872.56;;;18.20;100.00
44144;BME280;43510;51.920;4.492;2022-09-09T00:14:45;67872.56;;;18.20;100.00
44144;BME280;43510;51.920;4.492;2022-09-09T00:19:54;67868.31;;;18.12;100.00
44144;BME280;43510;51.920;4.492;2022-09-09T00:22:24;67867.91;;;18.14;100.00
44144;BME280;43510;51.920;4.492;2022-09-09T00:24:55;67871.13;;;18.14;100.00
44144;BME280;43510;51.920;4.492;2022-09-09T00:30:18;67871.41;;;18.19;100.00
44144;BME280;43510;51.920;4.492;2022-09-09T00:33:11;67872.94;;;18.18;100.00
44144;BME280;43510;51.920;4.492;2022-09-09T00:36:12;67870.88;;;18.19;100.00
44144;BME280;43510;51.920;4.492;2022-09-09T00:38:59;67870.56;;;18.14;100.00
44144;BME280;43510;51.920;4.492;2022-09-09T00:44:27;67857.94;;;18.07;100.00
44144;BME280;43510;51.920;4.492;2022-09-09T00:47:49;67861.03;;;18.05;100.00
44144;BME280;43510;51.920;4.492;2022-09-09T00:50:29;67858.78;;;18.03;100.00
44144;BME280;43510;51.920;4.492;2022-09-09T00:53:11;67848.97;;;17.99;100.00
44144;BME280;43510;51.920;4.492;2022-09-09T00:56:00;67856.53;;;18.01;100.00
44144;BME280;43510;51.920;4.492;2022-09-09T00:58:31;67844.66;;;17.98;100.00
44144;BME280;43510;51.920;4.492;2022-09-09T01:01:23;67857.38;;;18.07;100.00
44144;BME280;43510;51.920;4.492;2022-09-09T01:03:56;67848.97;;;17.99;100.00
44144;BME280;43510;51.920;4.492;2022-09-09T01:06:37;67848.44;;;17.99;100.00
44144;BME280;43510;51.920;4.492;2022-09-09T01:12:14;67859.63;;;18.09;100.00
44144;BME280;43510;51.920;4.492;2022-09-09T01:14:42;67863.41;;;18.10;100.00
44144;BME280;43510;51.920;4.492;2022-09-09T01:17:44;67875.91;;;18.23;100.00
44144;BME280;43510;51.920;4.492;2022-09-09T01:20:23;67874.25;;;18.22;100.00
44144;BME280;43510;51.920;4.492;2022-09-09T01:28:11;67876.34;;;18.21;100.00
44144;BME280;43510;51.920;4.492;2022-09-09T01:30:40;67880.81;;;18.25;100.00
44144;BME280;43510;51.920;4.492;2022-09-09T01:33:14;67880.81;;;18.25;100.00
44144;BME280;43510;51.920;4.492;2022-09-09T01:35:57;67879.28;;;18.26;100.00
44144;BME280;43510;51.920;4.492;2022-09-09T01:38:25;67871.41;;;18.19;100.00
44144;BME280;43510;51.920;4.492;2022-09-09T01:40:52;67868.47;;;18.14;100.00
44144;BME280;43510;51.920;4.492;2022-09-09T01:43:20;67859.81;;;18.11;100.00
44144;BME280;43510;51.920;4.492;2022-09-09T01:45:48;67857.25;;;18.04;100.00
44144;BME280;43510;51.920;4.492;2022-09-09T01:48:15;67855.56;;;18.03;100.00
44144;BME280;43510;51.920;4.492;2022-09-09T01:50:41;67847.28;;;17.98;100.00
44144;BME280;43510;51.920;4.492;2022-09-09T01:53:07;67848.44;;;17.99;100.00
44144;BME280;43510;51.920;4.492;2022-09-09T01:55:40;67851.22;;;18.01;100.00
44144;BME280;43510;51.920;4.492;2022-09-09T02:03:35;67852.75;;;18.00;100.00
44144;BME280;43510;51.920;4.492;2022-09-09T02:06:30;67855.31;;;18.07;100.00
44144;BME280;43510;51.920;4.492;2022-09-09T02:08:59;67848.09;;;17.93;100.00
44144;BME280;43510;51.920;4.492;2022-09-09T02:11:27;67845.44;;;17.93;100.00
44144;BME280;43510;51.920;4.492;2022-09-09T02:14:05;67843.34;;;17.94;100.00
44144;BME280;43510;51.920;4.492;2022-09-09T02:21:44;67835.50;;;17.87;100.00
44144;BME280;43510;51.920;4.492;2022-09-09T02:24:12;67835.50;;;17.87;100.00
44144;BME280;43510;51.920;4.492;2022-09-09T02:26:42;67840.41;;;17.89;100.00
44144;BME280;43510;51.920;4.492;2022-09-09T02:29:14;67845.59;;;17.96;100.00
44144;BME280;43510;51.920;4.492;2022-09-09T02:31:41;67837.75;;;17.89;100.00
44144;BME280;43510;51.920;4.492;2022-09-09T02:34:09;67829.88;;;17.82;100.00
44144;BME280;43510;51.920;4.492;2022-09-09T02:36:37;67831.00;;;17.83;100.00
44144;BME280;43510;51.920;4.492;2022-09-09T02:39:07;67834.22;;;17.83;100.00
44144;BME280;43510;51.920;4.492;2022-09-09T02:41:34;67833.44;;;17.87;100.00
44144;BME280;43510;51.920;4.492;2022-09-09T02:44:00;67846.44;;;17.92;100.00
44144;BME280;43510;51.920;4.492;2022-09-09T02:49:19;67845.03;;;17.95;100.00
44144;BME280;43510;51.920;4.492;2022-09-09T02:52:07;67854.03;;;18.04;100.00
44144;BME280;43510;51.920;4.492;2022-09-09T02:54:42;67858.91;;;18.06;100.00
44144;BME280;43510;51.920;4.492;2022-09-09T02:59:39;67862.84;;;18.09;100.00
44144;BME280;43510;51.920;4.492;2022-09-09T03:02:05;67851.94;;;18.04;100.00
44144;BME280;43510;51.920;4.492;2022-09-09T03:04:30;67856.25;;;18.06;100.00
44144;BME280;43510;51.920;4.492;2022-09-09T03:06:57;67857.94;;;18.07;100.00
44144;BME280;43510;51.920;4.492;2022-09-09T03:09:22;67857.66;;;18.02;100.00
44144;BME280;43510;51.920;4.492;2022-09-09T03:11:48;67851.78;;;18.02;100.00
44144;BME280;43510;51.920;4.492;2022-09-09T03:14:15;67853.06;;;18.05;100.00
44144;BME280;43510;51.920;4.492;2022-09-09T03:16:41;67850.25;;;18.03;100.00
44144;BME280;43510;51.920;4.492;2022-09-09T03:19:08;67858.13;;;18.10;100.00
44144;BME280;43510;51.920;4.492;2022-09-09T03:21:34;67857.25;;;18.04;100.00
44144;BME280;43510;51.920;4.492;2022-09-09T03:23:59;67851.06;;;17.99;100.00
44144;BME280;43510;51.920;4.492;2022-09-09T03:26:25;67862.13;;;18.06;100.00
44144;BME280;43510;51.920;4.492;2022-09-09T03:28:50;67860.19;;;18.09;100.00
44144;BME280;43510;51.920;4.492;2022-09-09T03:31:16;67862.69;;;18.07;100.00
44144;BME280;43510;51.920;4.492;2022-09-09T03:33:43;67851.22;;;18.01;100.00
44144;BME280;43510;51.920;4.492;2022-09-09T03:36:08;67857.66;;;18.02;100.00
44144;BME280;43510;51.920;4.492;2022-09-09T03:38:34;67848.44;;;17.99;100.00
44144;BME280;43510;51.920;4.492;2022-09-09T03:41:00;67850.66;;;18.01;100.00
44144;BME280;43510;51.920;4.492;2022-09-09T03:43:27;67848.97;;;17.99;100.00
44144;BME280;43510;51.920;4.492;2022-09-09T03:45:53;67847.69;;;17.95;100.00
44144;BME280;43510;51.920;4.492;2022-09-09T03:48:22;67848.97;;;17.99;100.00
44144;BME280;43510;51.920;4.492;2022-09-09T03:50:49;67847.28;;;17.98;100.00
44144;BME280;43510;51.920;4.492;2022-09-09T03:53:17;67840.00;;;17.91;100.00
44144;BME280;43510;51.920;4.492;2022-09-09T03:55:47;67845.44;;;17.93;100.00
44144;BME280;43510;51.920;4.492;2022-09-09T03:58:16;67845.03;;;17.95;100.00
44144;BME280;43510;51.920;4.492;2022-09-09T04:00:54;67843.53;;;17.97;100.00
44144;BME280;43510;51.920;4.492;2022-09-09T04:03:19;67841.53;;;17.90;100.00
44144;BME280;43510;51.920;4.492;2022-09-09T04:05:48;67834.97;;;17.86;100.00
44144;BME280;43510;51.920;4.492;2022-09-09T04:08:14;67838.16;;;17.87;100.00
44144;BME280;43510;51.920;4.492;2022-09-09T04:10:39;67826.53;;;17.79;100.00
44144;BME280;43510;51.920;4.492;2022-09-09T04:13:04;67823.72;;;17.76;100.00
44144;BME280;43510;51.920;4.492;2022-09-09T04:15:30;67822.06;;;17.75;100.00
44144;BME280;43510;51.920;4.492;2022-09-09T04:17:56;67823.41;;;17.71;100.00
44144;BME280;43510;51.920;4.492;2022-09-09T04:20:21;67814.75;;;17.68;100.00
44144;BME280;43510;51.920;4.492;2022-09-09T04:22:47;67816.41;;;17.70;100.00
44144;BME280;43510;51.920;4.492;2022-09-09T04:25:13;67822.44;;;17.73;100.00
44144;BME280;43510;51.920;4.492;2022-09-09T04:27:40;67815.31;;;17.69;100.00
44144;BME280;43510;51.920;4.492;2022-09-09T04:30:06;67818.66;;;17.72;100.00
44144;BME280;43510;51.920;4.492;2022-09-09T04:32:33;67810.25;;;17.64;100.00
44144;BME280;43510;51.920;4.492;2022-09-09T04:34:58;67800.31;;;17.58;100.00
44144;BME280;43510;51.920;4.492;2022-09-09T04:37:24;67791.31;;;17.49;100.00
44144;BME280;43510;51.920;4.492;2022-09-09T04:39:50;67803.75;;;17.53;100.00
44144;BME280;43510;51.920;4.492;2022-09-09T04:42:15;67803.50;;;17.58;100.00
44144;BME280;43510;51.920;4.492;2022-09-09T04:44:42;67796.38;;;17.54;100.00
44144;BME280;43510;51.920;4.492;2022-09-09T04:47:08;67797.31;;;17.52;100.00
44144;BME280;43510;51.920;4.492;2022-09-09T04:49:34;67792.28;;;17.48;100.00
44144;BME280;43510;51.920;4.492;2022-09-09T04:52:00;67792.44;;;17.50;100.00
44144;BME280;43510;51.920;4.492;2022-09-09T04:54:25;67796.22;;;17.51;100.00
44144;BME280;43510;51.920;4.492;2022-09-09T04:56:51;67790.03;;;17.46;100.00
44144;BME280;43510;51.920;4.492;2022-09-09T04:59:16;67787.81;;;17.44;100.00
44144;BME280;43510;51.920;4.492;2022-09-09T05:01:42;67786.13;;;17.42;100.00
44144;BME280;43510;51.920;4.492;2022-09-09T05:04:07;67774.47;;;17.34;100.00
44144;BME280;43510;51.920;4.492;2022-09-09T05:06:34;67778.13;;;17.33;100.00
44144;BME280;43510;51.920;4.492;2022-09-09T05:09:01;67776.59;;;17.34;100.00
44144;BME280;43510;51.920;4.492;2022-09-09T05:11:28;67771.94;;;17.27;100.00
44144;BME280;43510;51.920;4.492;2022-09-09T05:13:55;67768.16;;;17.26;100.00
44144;BME280;43510;51.920;4.492;2022-09-09T05:16:22;67777.94;;;17.30;100.00
44144;BME280;43510;51.920;4.492;2022-09-09T05:18:51;67770.81;;;17.26;100.00
44144;BME280;43510;51.920;4.492;2022-09-09T05:21:18;67775.47;;;17.33;100.00
44144;BME280;43510;51.920;4.492;2022-09-09T05:23:45;67775.28;;;17.30;100.00
44144;BME280;43510;51.920;4.492;2022-09-09T05:26:21;67768.72;;;17.27;100.00
44144;BME280;43510;51.920;4.492;2022-09-09T05:28:47;67777.13;;;17.34;100.00
44144;BME280;43510;51.920;4.492;2022-09-09T05:31:14;67763.53;;;17.20;100.00
44144;BME280;43510;51.920;4.492;2022-09-09T05:33:41;67777.56;;;17.32;100.00
44144;BME280;43510;51.920;4.492;2022-09-09T05:36:11;67787.63;;;17.41;100.00
44144;BME280;43510;51.920;4.492;2022-09-09T05:38:40;67793.25;;;17.46;100.00
44144;BME280;43510;51.920;4.492;2022-09-09T05:41:06;67787.25;;;17.43;100.00
44144;BME280;43510;51.920;4.492;2022-09-09T05:43:32;67790.03;;;17.46;100.00
44144;BME280;43510;51.920;4.492;2022-09-09T05:46:09;67807.47;;;17.62;100.00
44144;BME280;43510;51.920;4.492;2022-09-09T05:48:40;67819.78;;;17.73;100.00
44144;BME280;43510;51.920;4.492;2022-09-09T05:51:08;67841.13;;;17.92;100.00
44144;BME280;43510;51.920;4.492;2022-09-09T05:53:35;67855.47;;;18.10;100.00
44144;BME280;43510;51.920;4.492;2022-09-09T05:56:09;67874.38;;;18.24;100.00
44144;BME280;43510;51.920;4.492;2022-09-09T05:59:03;67900.47;;;18.43;100.00
44144;BME280;43510;51.920;4.492;2022-09-09T06:01:31;67895.88;;;18.46;100.00
44144;BME280;43510;51.920;4.492;2022-09-09T06:03:58;67908.16;;;18.48;99.35
44144;BME280;43510;51.920;4.492;2022-09-09T06:06:26;67895.00;;;18.41;99.61
44144;BME280;43510;51.920;4.492;2022-09-09T06:08:53;67888.28;;;18.34;99.35
44144;BME280;43510;51.920;4.492;2022-09-09T06:11:22;67896.53;;;18.40;99.75
44144;BME280;43510;51.920;4.492;2022-09-09T06:13:48;67899.50;;;18.45;99.50
44144;BME280;43510;51.920;4.492;2022-09-09T06:16:18;67898.53;;;18.46;99.71
44144;BME280;43510;51.920;4.492;2022-09-09T06:18:44;67909.59;;;18.54;99.19
44144;BME280;43510;51.920;4.492;2022-09-09T06:21:18;67919.72;;;18.63;98.98
44144;BME280;43510;51.920;4.492;2022-09-09T06:23:45;67921.25;;;18.62;98.42
44144;BME280;43510;51.920;4.492;2022-09-09T06:26:13;67918.59;;;18.62;98.71
44144;BME280;43510;51.920;4.492;2022-09-09T06:28:40;67917.06;;;18.63;98.52
44144;BME280;43510;51.920;4.492;2022-09-09T06:31:12;67926.63;;;18.71;98.33
44144;BME280;43510;51.920;4.492;2022-09-09T06:33:39;67930.38;;;18.72;98.35
44144;BME280;43510;51.920;4.492;2022-09-09T06:36:10;67933.03;;;18.72;98.05
44144;BME280;43510;51.920;4.492;2022-09-09T06:38:36;67926.47;;;18.69;98.12
44144;BME280;43510;51.920;4.492;2022-09-09T06:41:02;67927.75;;;18.72;97.91
44144;BME280;43510;51.920;4.492;2022-09-09T06:43:28;67933.78;;;18.75;98.54
44144;BME280;43510;51.920;4.492;2022-09-09T06:48:23;67954.78;;;18.90;97.83
44144;BME280;43510;51.920;4.492;2022-09-09T06:51:00;67958.31;;;18.95;97.74
44144;BME280;43510;51.920;4.492;2022-09-09T06:53:26;67963.94;;;19.00;97.18
44144;BME280;43510;51.920;4.492;2022-09-09T06:55:52;67960.72;;;19.00;97.20
44144;BME280;43510;51.920;4.492;2022-09-09T06:58:18;67958.31;;;18.95;97.02
44144;BME280;43510;51.920;4.492;2022-09-09T07:00:44;67960.72;;;19.00;96.86
44144;BME280;43510;51.920;4.492;2022-09-09T07:03:10;67970.53;;;19.04;96.84
44144;BME280;43510;51.920;4.492;2022-09-09T07:05:36;67964.25;;;19.05;96.43
44144;BME280;43510;51.920;4.492;2022-09-09T07:08:02;67954.13;;;18.96;95.72
44144;BME280;43510;51.920;4.492;2022-09-09T07:10:28;67963.53;;;19.02;95.65
44144;BME280;43510;51.920;4.492;2022-09-09T07:12:53;67970.28;;;19.08;95.67
44144;BME280;43510;51.920;4.492;2022-09-09T07:15:20;67967.47;;;19.06;95.85
44144;BME280;43510;51.920;4.492;2022-09-09T07:17:47;67956.22;;;18.96;96.20
44144;BME280;43510;51.920;4.492;2022-09-09T07:20:14;67962.66;;;18.97;96.37
44144;BME280;43510;51.920;4.492;2022-09-09T07:22:40;67951.56;;;18.89;96.59
44144;BME280;43510;51.920;4.492;2022-09-09T07:25:06;67947.25;;;18.88;97.02
44144;BME280;43510;51.920;4.492;2022-09-09T07:27:32;67947.66;;;18.86;97.50
44144;BME280;43510;51.920;4.492;2022-09-09T07:29:57;67939.94;;;18.81;97.13
44144;BME280;43510;51.920;4.492;2022-09-09T07:32:23;67938.81;;;18.80;97.46
44144;BME280;43510;51.920;4.492;2022-09-09T07:34:48;67941.63;;;18.83;97.59
44144;BME280;43510;51.920;4.492;2022-09-09T07:37:15;67942.19;;;18.83;97.91
44144;BME280;43510;51.920;4.492;2022-09-09T07:39:42;67943.31;;;18.84;97.86
44144;BME280;43510;51.920;4.492;2022-09-09T07:42:07;67936.16;;;18.80;98.18
44144;BME280;43510;51.920;4.492;2022-09-09T07:44:36;67933.78;;;18.75;98.38
44144;BME280;43510;51.920;4.492;2022-09-09T07:47:05;67932.78;;;18.77;98.45
44144;BME280;43510;51.920;4.492;2022-09-09T07:49:31;67942.91;;;18.86;98.17
44144;BME280;43510;51.920;4.492;2022-09-09T07:51:57;67956.09;;;18.93;97.89
44144;BME280;43510;51.920;4.492;2022-09-09T07:54:24;67975.00;;;19.08;97.39
44144;BME280;43510;51.920;4.492;2022-09-09T07:56:51;67973.66;;;19.11;96.79
44144;BME280;43510;51.920;4.492;2022-09-09T07:59:17;67984.31;;;19.21;96.08
44144;BME280;43510;51.920;4.492;2022-09-09T08:01:49;67984.88;;;19.22;95.98
44144;BME280;43510;51.920;4.492;2022-09-09T08:04:17;67983.75;;;19.21;95.91
44144;BME280;43510;51.920;4.492;2022-09-09T08:06:46;67977.00;;;19.14;96.16
44144;BME280;43510;51.920;4.492;2022-09-09T08:09:12;67978.84;;;19.18;95.78
44144;BME280;43510;51.920;4.492;2022-09-09T08:11:39;67980.94;;;19.18;95.74
44144;BME280;43510;51.920;4.492;2022-09-09T08:14:05;67982.63;;;19.20;95.32
44144;BME280;43510;51.920;4.492;2022-09-09T08:16:33;67986.00;;;19.23;96.01
44144;BME280;43510;51.920;4.492;2022-09-09T08:18:59;67986.56;;;19.23;95.40
44144;BME280;43510;51.920;4.492;2022-09-09T08:21:29;67983.75;;;19.21;95.67
44144;BME280;43510;51.920;4.492;2022-09-09T08:23:57;68013.97;;;19.45;94.58
44144;BME280;43510;51.920;4.492;2022-09-09T08:26:29;67988.25;;;19.25;94.78
44144;BME280;43510;51.920;4.492;2022-09-09T08:28:56;67986.00;;;19.23;94.77
44144;BME280;43510;51.920;4.492;2022-09-09T08:32:02;67982.47;;;19.17;95.14
44144;BME280;43510;51.920;4.492;2022-09-09T08:34:22;67971.97;;;19.10;94.81
44144;BME280;43510;51.920;4.492;2022-09-09T08:36:50;67971.41;;;19.09;95.04
44144;BME280;43510;51.920;4.492;2022-09-09T08:39:18;67941.88;;;18.78;96.68
44144;BME280;43510;51.920;4.492;2022-09-09T08:50:26;67856.25;;;18.06;100.00
44144;BME280;43510;51.920;4.492;2022-09-09T08:53:14;67858.38;;;18.05;100.00
44144;BME280;43510;51.920;4.492;2022-09-09T08:55:57;67863.00;;;18.12;100.00
44144;BME280;43510;51.920;4.492;2022-09-09T08:58:28;67860.19;;;18.09;100.00
44144;BME280;43510;51.920;4.492;2022-09-09T09:01:26;67885.47;;;18.32;100.00
44144;BME280;43510;51.920;4.492;2022-09-09T09:04:38;67900.06;;;18.45;100.00
44144;BME280;43510;51.920;4.492;2022-09-09T09:10:12;67898.38;;;18.44;100.00
44144;BME280;43510;51.920;4.492;2022-09-09T09:12:41;67880.41;;;18.27;100.00
44144;BME280;43510;51.920;4.492;2022-09-09T09:15:18;67875.38;;;18.23;100.00
44144;BME280;43510;51.920;4.492;2022-09-09T09:17:45;67867.50;;;18.16;100.00
44144;BME280;43510;51.920;4.492;2022-09-09T09:20:15;67865.41;;;18.16;100.00
44144;BME280;43510;51.920;4.492;2022-09-09T09:22:51;67870.28;;;18.18;100.00
44144;BME280;43510;51.920;4.492;2022-09-09T09:25:26;67864.69;;;18.13;100.00
44144;BME280;43510;51.920;4.492;2022-09-09T09:30:42;67849.94;;;17.98;100.00
44144;BME280;43510;51.920;4.492;2022-09-09T09:33:20;67847.69;;;17.95;100.00
44144;BME280;43510;51.920;4.492;2022-09-09T09:35:49;67835.91;;;17.85;100.00
44144;BME280;43510;51.920;4.492;2022-09-09T09:38:24;67826.53;;;17.79;100.00
44144;BME280;43510;51.920;4.492;2022-09-09T09:40:56;67831.56;;;17.83;100.00
44144;BME280;43510;51.920;4.492;2022-09-09T09:45:55;67842.25;;;17.93;100.00
44144;BME280;43510;51.920;4.492;2022-09-09T09:48:23;67838.88;;;17.90;100.00
44144;BME280;43510;51.920;4.492;2022-09-09T09:50:54;67851.22;;;18.01;100.00
44144;BME280;43510;51.920;4.492;2022-09-09T09:56:03;67883.63;;;18.28;100.00
44144;BME280;43510;51.920;4.492;2022-09-09T09:58:31;67869.59;;;18.15;100.00
44144;BME280;43510;51.920;4.492;2022-09-09T10:01:00;67834.78;;;17.84;100.00
44144;BME280;43510;51.920;4.492;2022-09-09T10:03:28;67843.22;;;17.91;100.00
44144;BME280;43510;51.920;4.492;2022-09-09T10:05:55;67835.09;;;17.89;100.00
44144;BME280;43510;51.920;4.492;2022-09-09T10:08:23;67830.88;;;17.80;100.00
44144;BME280;43510;51.920;4.492;2022-09-09T10:14:21;67825.72;;;17.83;100.00
44144;BME280;43510;51.920;4.492;2022-09-09T10:27:33;67854.03;;;18.04;100.00
44144;BME280;43510;51.920;4.492;2022-09-09T10:30:18;67863.00;;;18.12;100.00
44144;BME280;43510;51.920;4.492;2022-09-09T10:33:02;67855.00;;;18.02;100.00
44144;BME280;43510;51.920;4.492;2022-09-09T10:38:47;67863.97;;;18.10;100.00
44144;BME280;43510;51.920;4.492;2022-09-09T10:41:18;67864.69;;;18.13;100.00
44144;BME280;43510;51.920;4.492;2022-09-09T10:44:11;67873.69;;;18.21;100.00
44144;BME280;43510;51.920;4.492;2022-09-09T10:46:52;67867.91;;;18.14;100.00
44144;BME280;43510;51.920;4.492;2022-09-09T10:49:52;67847.84;;;17.98;100.00
44144;BME280;43510;51.920;4.492;2022-09-09T10:53:02;67840.00;;;17.91;100.00
44144;BME280;43510;51.920;4.492;2022-09-09T10:55:45;67837.91;;;17.91;100.00
44144;BME280;43510;51.920;4.492;2022-09-09T11:01:35;67836.63;;;17.88;100.00
44144;BME280;43510;51.920;4.492;2022-09-09T11:04:15;67858.22;;;18.03;100.00
44144;BME280;43510;51.920;4.492;2022-09-09T11:06:47;67863.56;;;18.12;100.00
44144;BME280;43510;51.920;4.492;2022-09-09T11:09:19;67910.00;;;18.52;100.00
44144;BME280;43510;51.920;4.492;2022-09-09T11:11:57;67975.88;;;19.13;100.00
44144;BME280;43510;51.920;4.492;2022-09-09T11:14:45;68047.69;;;19.76;100.00
44144;BME280;43510;51.920;4.492;2022-09-09T11:17:16;68069.19;;;19.97;100.00
44144;BME280;43510;51.920;4.492;2022-09-09T11:19:44;68086.75;;;20.16;100.00
44144;BME280;43510;51.920;4.492;2022-09-09T11:25:01;68105.31;;;20.32;100.00
44144;BME280;43510;51.920;4.492;2022-09-09T11:27:33;68106.69;;;20.29;100.00
44144;BME280;43510;51.920;4.492;2022-09-09T11:38:05;68091.69;;;20.18;100.00
44144;BME280;43510;51.920;4.492;2022-09-09T11:40:35;68072.84;;;20.06;100.00
44144;BME280;43510;51.920;4.492;2022-09-09T11:43:14;68076.66;;;20.07;100.00
44144;BME280;43510;51.920;4.492;2022-09-09T11:45:43;68070.00;;;19.93;100.00
44144;BME280;43510;51.920;4.492;2022-09-09T11:48:31;68011.31;;;19.45;100.00
44144;BME280;43510;51.920;4.492;2022-09-09T11:54:01;67947.09;;;18.85;100.00
44144;BME280;43510;51.920;4.492;2022-09-09T11:56:32;67923.09;;;18.66;100.00
44144;BME280;43510;51.920;4.492;2022-09-09T11:59:02;67912.44;;;18.56;100.00
44144;BME280;43510;51.920;4.492;2022-09-09T12:01:43;67896.69;;;18.42;100.00
44144;BME280;43510;51.920;4.492;2022-09-09T12:09:46;67888.84;;;18.35;100.00
44144;BME280;43510;51.920;4.492;2022-09-09T12:17:57;67876.47;;;18.24;100.00
44144;BME280;43510;51.920;4.492;2022-09-09T12:28:26;67913.56;;;18.57;100.00
44144;BME280;43510;51.920;4.492;2022-09-09T12:31:58;67927.19;;;18.72;100.00
44144;BME280;43510;51.920;4.492;2022-09-09T12:34:23;67922.53;;;18.65;100.00
44144;BME280;43510;51.920;4.492;2022-09-09T12:36:58;67900.19;;;18.48;100.00
44144;BME280;43510;51.920;4.492;2022-09-09T12:39:39;67899.09;;;18.47;100.00
44144;BME280;43510;51.920;4.492;2022-09-09T12:42:19;67897.97;;;18.46;100.00
44144;BME280;43510;51.920;4.492;2022-09-09T12:45:02;67897.81;;;18.43;100.00
44144;BME280;43510;51.920;4.492;2022-09-09T12:50:01;67898.78;;;18.42;100.00
44144;BME280;43510;51.920;4.492;2022-09-09T12:52:33;67905.94;;;18.46;100.00
44144;BME280;43510;51.920;4.492;2022-09-09T12:55:03;67899.34;;;18.42;100.00
44144;BME280;43510;51.920;4.492;2022-09-09T12:57:36;67897.25;;;18.43;100.00
44144;BME280;43510;51.920;4.492;2022-09-09T13:00:23;67895.00;;;18.41;100.00
44144;BME280;43510;51.920;4.492;2022-09-09T13:05:36;67871.41;;;18.19;100.00
44144;BME280;43510;51.920;4.492;2022-09-09T13:08:04;67878.56;;;18.23;100.00
44144;BME280;43510;51.920;4.492;2022-09-09T13:10:33;67893.47;;;18.42;100.00
44144;BME280;43510;51.920;4.492;2022-09-09T13:13:00;67934.34;;;18.76;100.00
44144;BME280;43510;51.920;4.492;2022-09-09T13:15:28;67996.66;;;19.32;100.00
44144;BME280;43510;51.920;4.492;2022-09-09T13:18:00;68057.78;;;19.85;100.00
44144;BME280;43510;51.920;4.492;2022-09-09T13:20:28;68109.69;;;20.34;100.00
44144;BME280;43510;51.920;4.492;2022-09-09T13:22:54;68152.28;;;20.70;100.00
44144;BME280;43510;51.920;4.492;2022-09-09T13:25:24;68156.50;;;20.78;100.00
44144;BME280;43510;51.920;4.492;2022-09-09T13:28:05;68165.50;;;20.87;100.00
44144;BME280;43510;51.920;4.492;2022-09-09T13:30:36;68195.03;;;21.08;100.00
44144;BME280;43510;51.920;4.492;2022-09-09T13:33:21;68214.31;;;21.28;100.00
44144;BME280;43510;51.920;4.492;2022-09-09T13:35:56;68203.06;;;21.18;100.00
44144;BME280;43510;51.920;4.492;2022-09-09T13:38:23;68194.03;;;21.10;100.00
44144;BME280;43510;51.920;4.492;2022-09-09T13:41:19;68201.38;;;21.16;100.00
44144;BME280;43510;51.920;4.492;2022-09-09T13:43:47;68164.94;;;20.86;100.00
44144;BME280;43510;51.920;4.492;2022-09-09T13:46:35;68066.53;;;19.97;100.00
44144;BME280;43510;51.920;4.492;2022-09-09T13:49:19;67984.47;;;19.24;100.00
44144;BME280;43510;51.920;4.492;2022-09-09T13:51:49;67956.78;;;18.96;100.00
44144;BME280;43510;51.920;4.492;2022-09-09T13:54:20;67933.91;;;18.78;100.00
44144;BME280;43510;51.920;4.492;2022-09-09T13:56:46;67928.69;;;18.71;100.00
44144;BME280;43510;51.920;4.492;2022-09-09T13:59:19;67920.03;;;18.68;100.00
44144;BME280;43510;51.920;4.492;2022-09-09T14:01:49;67913.00;;;18.57;100.00
44144;BME280;43510;51.920;4.492;2022-09-09T14:04:17;67913.56;;;18.57;100.00
44144;BME280;43510;51.920;4.492;2022-09-09T14:06:43;67904.16;;;18.51;100.00
44144;BME280;43510;51.920;4.492;2022-09-09T14:09:14;67908.50;;;18.53;100.00
44144;BME280;43510;51.920;4.492;2022-09-09T14:11:41;67907.38;;;18.52;100.00
44144;BME280;43510;51.920;4.492;2022-09-09T14:14:07;67905.09;;;18.50;100.00
44144;BME280;43510;51.920;4.492;2022-09-09T14:16:32;67914.25;;;18.60;100.00
44144;BME280;43510;51.920;4.492;2022-09-09T14:18:58;67927.19;;;18.72;100.00
44144;BME280;43510;51.920;4.492;2022-09-09T14:21:25;67950.47;;;18.88;100.00
44144;BME280;43510;51.920;4.492;2022-09-09T14:23:51;67979.25;;;19.16;100.00
44144;BME280;43510;51.920;4.492;2022-09-09T14:26:18;68001.88;;;19.39;100.00
44144;BME280;43510;51.920;4.492;2022-09-09T14:28:46;68030.41;;;19.63;100.00
44144;BME280;43510;51.920;4.492;2022-09-09T14:31:12;68036.59;;;19.68;100.00
44144;BME280;43510;51.920;4.492;2022-09-09T14:33:38;68035.06;;;19.69;100.00
44144;BME280;43510;51.920;4.492;2022-09-09T14:36:04;68043.91;;;19.75;100.00
44144;BME280;43510;51.920;4.492;2022-09-09T14:38:31;68056.81;;;19.86;100.00
44144;BME280;43510;51.920;4.492;2022-09-09T14:40:59;68062.72;;;19.96;100.00
44144;BME280;43510;51.920;4.492;2022-09-09T14:43:25;68080.97;;;20.08;100.00
44144;BME280;43510;51.920;4.492;2022-09-09T14:45:53;68100.13;;;20.25;100.00
44144;BME280;43510;51.920;4.492;2022-09-09T14:48:18;68120.38;;;20.44;100.00
44144;BME280;43510;51.920;4.492;2022-09-09T14:50:44;68138.22;;;20.57;100.00
44144;BME280;43510;51.920;4.492;2022-09-09T14:53:09;68137.06;;;20.56;100.00
44144;BME280;43510;51.920;4.492;2022-09-09T14:55:36;68153.00;;;20.73;100.00
44144;BME280;43510;51.920;4.492;2022-09-09T14:58:02;68160.28;;;20.79;100.00
44144;BME280;43510;51.920;4.492;2022-09-09T15:00:27;68162.69;;;20.84;100.00
44144;BME280;43510;51.920;4.492;2022-09-09T15:02:53;68170.41;;;20.89;100.00
44144;BME280;43510;51.920;4.492;2022-09-09T15:05:18;68160.84;;;20.80;100.00
44144;BME280;43510;51.920;4.492;2022-09-09T15:07:44;68159.19;;;20.78;100.00